createdAt,value
2022-11-25T00:01:44.688Z,77.81
2022-11-25T00:06:45.963Z,77.96
2022-11-25T00:11:47.259Z,78.31
2022-11-25T00:16:49.011Z,80.16
2022-11-25T00:21:50.344Z,80.28
2022-11-25T00:26:51.616Z,80.31
2022-11-25T00:31:52.883Z,80.56
2022-11-25T00:36:54.148Z,80.75
2022-11-25T00:42:14.244Z,80.43
2022-11-25T00:47:15.457Z,80.22
2022-11-25T00:52:16.712Z,81.58
2022-11-25T00:57:17.928Z,82.50
2022-11-25T01:02:19.190Z,82.26
2022-11-25T01:07:20.567Z,81.35
2022-11-25T01:12:21.848Z,81.53
2022-11-25T01:17:23.100Z,80.99
2022-11-25T01:22:24.352Z,80.39
2022-11-25T01:27:25.623Z,81.37
2022-11-25T01:32:26.821Z,81.51
2022-11-25T01:37:28.092Z,82.14
2022-11-25T01:42:29.312Z,81.63
2022-11-25T01:47:30.537Z,81.32
2022-11-25T01:52:31.771Z,81.29
2022-11-25T01:57:33.047Z,81.58
2022-11-25T02:02:34.410Z,82.26
2022-11-25T02:07:36.195Z,82.52
2022-11-25T02:12:38.659Z,81.68
2022-11-25T02:17:40.033Z,83.63
2022-11-25T02:22:41.253Z,84.08
2022-11-25T02:27:42.477Z,84.52
2022-11-25T02:32:44.004Z,83.33
2022-11-25T02:37:45.287Z,83.59
2022-11-25T02:42:46.593Z,83.17
2022-11-25T02:47:47.792Z,82.18
2022-11-25T02:52:49.125Z,81.04
2022-11-25T02:57:50.401Z,80.61
2022-11-25T03:02:51.613Z,80.60
2022-11-25T03:07:52.888Z,81.25
2022-11-25T03:12:54.201Z,80.70
2022-11-25T03:17:55.444Z,80.70
2022-11-25T03:22:56.693Z,80.54
2022-11-25T03:27:58.089Z,80.71
2022-11-25T03:32:59.344Z,80.50
2022-11-25T03:38:00.573Z,80.08
2022-11-25T03:43:01.866Z,80.41
2022-11-25T03:48:03.137Z,80.40
2022-11-25T03:53:04.381Z,81.35
2022-11-25T03:58:05.635Z,81.92
2022-11-25T04:03:06.895Z,83.05
2022-11-25T04:08:08.230Z,83.33
2022-11-25T04:13:09.505Z,83.22
2022-11-25T04:18:10.807Z,82.86
2022-11-25T04:23:12.272Z,84.00
2022-11-25T04:28:13.555Z,84.15
2022-11-25T04:33:14.773Z,84.56
2022-11-25T04:38:16.069Z,85.25
2022-11-25T04:43:17.405Z,85.93
2022-11-25T04:48:18.613Z,85.83
2022-11-25T04:53:19.851Z,85.61
2022-11-25T04:58:41.086Z,85.13
2022-11-25T05:03:48.067Z,84.26
2022-11-25T05:08:50.927Z,84.67
2022-11-25T05:13:52.136Z,85.08
2022-11-25T05:18:53.392Z,85.13
2022-11-25T05:23:56.100Z,86.74
2022-11-25T05:28:57.564Z,86.56
2022-11-25T05:33:58.906Z,86.21
2022-11-25T05:39:00.157Z,86.28
2022-11-25T05:44:01.538Z,86.20
2022-11-25T05:49:02.793Z,85.79
2022-11-25T05:54:04.041Z,85.87
2022-11-25T05:59:05.393Z,85.58
2022-11-25T06:04:06.889Z,85.28
2022-11-25T06:09:08.178Z,84.49
2022-11-25T06:14:09.790Z,85.50
2022-11-25T06:19:11.026Z,85.87
2022-11-25T06:24:12.303Z,85.40
2022-11-25T06:29:13.522Z,85.97
2022-11-25T06:34:14.724Z,87.01
2022-11-25T06:39:16.116Z,86.27
2022-11-25T06:44:17.404Z,85.93
2022-11-25T06:49:18.627Z,85.12
2022-11-25T06:54:19.935Z,85.60
2022-11-25T06:59:21.174Z,85.30
2022-11-25T07:04:22.411Z,84.60
2022-11-25T07:09:24.991Z,83.85
2022-11-25T07:14:26.269Z,84.44
2022-11-25T07:19:27.540Z,83.46
2022-11-25T07:24:28.795Z,82.46
2022-11-25T07:29:54.242Z,81.95
2022-11-25T07:34:52.036Z,81.73
2022-11-25T07:39:53.227Z,82.41
2022-11-25T07:44:54.463Z,82.97
2022-11-25T07:49:55.797Z,82.99
2022-11-25T07:54:56.997Z,83.65
2022-11-25T07:59:58.261Z,83.51
2022-11-25T08:04:59.546Z,81.76
2022-11-25T08:10:00.783Z,84.57
2022-11-25T08:15:02.024Z,80.70
2022-11-25T08:20:03.557Z,80.16
2022-11-25T08:25:04.877Z,80.28
2022-11-25T08:30:06.119Z,80.79
2022-11-25T08:35:07.382Z,81.02
2022-11-25T08:40:08.661Z,81.22
2022-11-25T08:45:10.976Z,81.25
2022-11-25T08:50:12.989Z,81.66
2022-11-25T08:55:14.281Z,81.14
2022-11-25T09:00:15.502Z,81.24
2022-11-25T09:05:16.843Z,81.61
2022-11-25T09:10:18.133Z,81.83
2022-11-25T09:15:19.476Z,81.29
2022-11-25T09:20:20.841Z,81.86
2022-11-25T09:25:22.253Z,83.13
2022-11-25T09:30:23.527Z,82.70
2022-11-25T09:35:24.768Z,81.12
2022-11-25T09:40:26.242Z,79.99
2022-11-25T09:45:46.442Z,79.45
2022-11-25T09:50:47.706Z,79.48
2022-11-25T09:55:49.020Z,79.64
2022-11-25T10:00:50.276Z,80.36
2022-11-25T10:05:52.961Z,80.30
2022-11-25T10:10:54.343Z,81.06
2022-11-25T10:15:55.677Z,81.37
2022-11-25T10:20:56.985Z,82.24
2022-11-25T10:25:58.267Z,83.98
2022-11-25T10:30:59.667Z,84.15
2022-11-25T10:36:00.972Z,85.25
2022-11-25T10:41:02.185Z,85.11
2022-11-25T10:46:03.660Z,84.43
2022-11-25T10:51:04.983Z,83.27
2022-11-25T10:56:06.296Z,81.50
2022-11-25T11:01:07.558Z,80.86
2022-11-25T11:06:08.851Z,80.09
2022-11-25T11:11:11.237Z,79.54
2022-11-25T11:16:12.589Z,78.45
2022-11-25T11:21:13.947Z,78.77
2022-11-25T11:26:15.228Z,78.45
2022-11-25T11:31:17.452Z,77.56
2022-11-25T11:36:18.870Z,77.84
2022-11-25T11:41:20.137Z,77.81
2022-11-25T11:46:21.402Z,79.14
2022-11-25T11:51:22.665Z,78.33
2022-11-25T11:56:39.309Z,78.79
2022-11-25T12:01:40.655Z,78.62
2022-11-25T12:06:41.960Z,78.08
2022-11-25T12:11:43.269Z,76.95
2022-11-25T12:16:44.552Z,76.67
2022-11-25T12:21:45.850Z,76.69
2022-11-25T12:26:47.113Z,76.03
2022-11-25T12:31:48.409Z,74.27
2022-11-25T12:36:49.719Z,74.35
2022-11-25T12:41:51.006Z,73.33
2022-11-25T12:46:52.340Z,72.65
2022-11-25T12:51:53.663Z,73.06
2022-11-25T12:56:54.908Z,72.97
2022-11-25T13:01:56.367Z,73.53
2022-11-25T13:06:57.718Z,73.29
2022-11-25T13:11:59.797Z,73.47
2022-11-25T13:17:01.891Z,73.83
2022-11-25T13:22:04.356Z,73.59
2022-11-25T13:27:06.094Z,73.76
2022-11-25T13:32:07.433Z,74.06
2022-11-25T13:37:08.802Z,73.63
2022-11-25T13:42:10.100Z,72.72
2022-11-25T13:47:11.386Z,73.15
2022-11-25T13:52:12.632Z,72.86
2022-11-25T13:57:13.965Z,72.62
2022-11-25T14:02:15.331Z,72.84
2022-11-25T14:07:19.985Z,74.95
2022-11-25T14:12:21.687Z,75.21
2022-11-25T14:17:23.032Z,75.28
2022-11-25T14:22:24.374Z,75.59
2022-11-25T14:27:25.585Z,76.65
2022-11-25T14:32:26.862Z,77.36
2022-11-25T14:37:28.135Z,76.88
2022-11-25T14:42:29.422Z,75.95
2022-11-25T14:47:34.593Z,75.87
2022-11-25T14:52:40.515Z,76.15
2022-11-25T14:57:42.136Z,75.36
2022-11-25T15:02:43.634Z,74.31
2022-11-25T15:07:44.934Z,73.69
2022-11-25T15:12:50.038Z,74.10
2022-11-25T15:17:55.194Z,73.97
2022-11-25T15:22:56.577Z,74.31
2022-11-25T15:27:58.425Z,74.13
2022-11-25T15:32:59.862Z,73.29
2022-11-25T15:38:01.083Z,73.99
2022-11-25T15:43:02.356Z,75.38
2022-11-25T15:48:03.576Z,75.84
2022-11-25T15:53:04.832Z,76.64
2022-11-25T15:58:06.102Z,78.56
2022-11-25T16:03:07.590Z,79.42
2022-11-25T16:08:08.833Z,79.12
2022-11-25T16:13:10.294Z,80.14
2022-11-25T16:18:38.612Z,79.60
2022-11-25T16:23:32.851Z,79.45
2022-11-25T16:28:34.101Z,78.82
2022-11-25T16:33:35.318Z,79.20
2022-11-25T16:38:36.582Z,79.28
2022-11-25T16:43:40.057Z,79.27
2022-11-25T16:48:41.325Z,79.65
2022-11-25T16:53:43.537Z,80.73
2022-11-25T16:58:44.826Z,81.20
2022-11-25T17:03:46.079Z,81.54
2022-11-25T17:08:47.299Z,82.53
2022-11-25T17:13:51.653Z,83.43
2022-11-25T17:18:52.904Z,84.60
2022-11-25T17:23:55.427Z,86.42
2022-11-25T17:28:56.834Z,86.90
2022-11-25T17:33:58.061Z,85.80
2022-11-25T17:38:59.406Z,85.74
2022-11-25T17:44:00.658Z,84.95
2022-11-25T17:49:01.904Z,84.15
2022-11-25T17:54:03.150Z,83.81
2022-11-25T17:59:04.410Z,84.02
2022-11-25T18:04:05.664Z,83.73
2022-11-25T18:09:06.928Z,83.17
2022-11-25T18:14:08.246Z,82.81
2022-11-25T18:19:10.240Z,82.29
2022-11-25T18:24:11.493Z,83.02
2022-11-25T18:29:12.734Z,85.58
2022-11-25T18:34:13.935Z,86.74
2022-11-25T18:39:15.149Z,86.98
2022-11-25T18:44:16.352Z,86.08
2022-11-25T18:49:17.626Z,85.15
2022-11-25T18:54:18.981Z,85.19
2022-11-25T18:59:20.294Z,84.29
2022-11-25T19:04:21.753Z,83.98
2022-11-25T19:09:23.195Z,84.02
2022-11-25T19:14:26.099Z,85.96
2022-11-25T19:19:27.507Z,85.35
2022-11-25T19:24:29.133Z,84.95
2022-11-25T19:29:30.468Z,85.10
2022-11-25T19:34:31.880Z,85.04
2022-11-25T19:39:33.160Z,85.16
2022-11-25T19:44:34.586Z,87.49
2022-11-25T19:49:36.042Z,87.62
2022-11-25T19:54:37.540Z,87.84
2022-11-25T19:59:39.057Z,87.06
2022-11-25T20:04:42.523Z,85.80
2022-11-25T20:09:44.130Z,84.55
2022-11-25T20:14:45.418Z,84.10
2022-11-25T20:19:46.633Z,83.60
2022-11-25T20:24:47.856Z,82.97
2022-11-25T20:29:49.093Z,84.97
2022-11-25T20:34:50.469Z,85.52
2022-11-25T20:39:51.953Z,87.12
2022-11-25T20:44:57.317Z,86.90
2022-11-25T20:49:59.142Z,86.72
2022-11-25T20:55:04.428Z,85.84
2022-11-25T21:00:05.724Z,87.71
2022-11-25T21:05:07.086Z,86.76
2022-11-25T21:10:08.462Z,86.20
2022-11-25T21:15:10.206Z,86.34
2022-11-25T21:20:11.531Z,86.65
2022-11-25T21:25:14.137Z,87.94
2022-11-25T21:30:15.454Z,88.08
2022-11-25T21:35:16.839Z,88.03
2022-11-25T21:40:18.069Z,88.06
2022-11-25T21:45:19.383Z,87.66
2022-11-25T21:50:20.788Z,88.26
2022-11-25T21:55:22.037Z,88.35
2022-11-25T22:00:23.268Z,89.65
2022-11-25T22:05:27.681Z,90.14
2022-11-25T22:10:29.042Z,91.38
2022-11-25T22:15:30.445Z,91.31
2022-11-25T22:20:33.495Z,90.49
2022-11-25T22:25:34.714Z,89.37
2022-11-25T22:30:36.060Z,89.20
2022-11-25T22:35:37.351Z,89.85
2022-11-25T22:40:38.716Z,91.29
2022-11-25T22:45:40.015Z,90.92
2022-11-25T22:50:41.270Z,91.63
2022-11-25T22:55:42.621Z,91.76
2022-11-25T23:00:45.230Z,91.56
2022-11-25T23:05:46.501Z,90.63
2022-11-25T23:10:48.287Z,89.24
2022-11-25T23:15:49.655Z,89.12
2022-11-25T23:20:50.881Z,88.92
2022-11-25T23:25:52.234Z,88.17
2022-11-25T23:30:53.526Z,87.95
2022-11-25T23:35:54.729Z,88.16
2022-11-25T23:40:55.999Z,88.79
2022-11-25T23:45:57.287Z,88.70
2022-11-25T23:50:58.629Z,88.50
2022-11-25T23:55:59.956Z,87.11
